Tropical Cyclones
[Index]
Season 2020-2021 Tropical Cyclone HABANA Track Map
Season 2020-2021 Summaries (Operational Data): [AU] [SIO] [SPAC] [SH]
<<- Previous TC | 2020-2021 Season | Next TC ->>

click for intensity scale information  Lat/long Grid: Show Hide

 Date Labels: Show Hide

Operational Tropical Cyclone Data

Name: HABANA
Number: 2124

01 Mar 2021 18:00 UTC to 17 Mar 2021 00:00 UTC

    date/time    lat    long     hPa   cat  kts
2021-03-01 18   15.0    65.0    1010         15          
2021-03-02 00   15.2    65.5    1010         15          
2021-03-02 06   15.4    66.0    1010         15          
2021-03-02 12   13.4    62.6    1010         15          
2021-03-02 18   13.8    63.4    1010         15          
2021-03-03 00   14.1    64.2    1006         15          
2021-03-03 06   14.8    65.1    1007         15          
2021-03-03 12   14.2    66.2    1007         20          
2021-03-03 18   15.6    67.8    1002         20          
2021-03-04 00   15.8    69.5    1002         25          
2021-03-04 06   16.0    71.2    1004         25          
2021-03-04 12   16.4    72.5    1001         30          
2021-03-04 18   16.7    73.4     997    1    40          
2021-03-05 00   16.6    74.5     992    2    50          
2021-03-05 06   16.4    75.5     972    3    80          
2021-03-05 12   16.3    76.3     948    4   100          
2021-03-05 18   16.1    77.1     945    4   105          
2021-03-06 00   16.0    77.5     941    4   105          
2021-03-06 06   16.0    77.8     935    5   110          
2021-03-06 12   16.1    78.1     941    4   105          
2021-03-06 18   16.3    78.5     942    4   105          
2021-03-07 00   16.6    79.0     942    4   100          
2021-03-07 06   16.8    79.4     945    4   100          
2021-03-07 12   17.1    80.1     955    4    90          
2021-03-07 18   17.5    80.6     960    4    90          
2021-03-08 00   17.9    80.9     960    4    90          
2021-03-08 06   18.2    81.0     975    3    70          
2021-03-08 12   18.4    81.0     979    3    65          
2021-03-08 18   18.5    80.6     984    2    60          
2021-03-09 00   18.5    80.2     983    2    60          
2021-03-09 06   18.4    79.5     985    2    60          
2021-03-09 12   18.3    78.9     981    3    65          
2021-03-09 18   17.9    78.1     975    3    75          
2021-03-10 00   17.7    77.4     967    3    85          
2021-03-10 06   17.5    76.7     948    4   100          
2021-03-10 12   17.5    76.0     928    5   120          
2021-03-10 18   17.4    75.4     933    5   115          
2021-03-11 00   17.4    74.9     931    5   115          
2021-03-11 06   17.5    74.2     935    5   110          
2021-03-11 12   17.9    73.7     937    5   110          
2021-03-11 18   18.1    73.0     937    5   110          
2021-03-12 00   18.4    72.3     938    5   110          
2021-03-12 06   18.8    71.7     938    5   110          
2021-03-12 12   19.3    71.2     945    4   100          
2021-03-12 18   19.8    70.9     952    4    95          
2021-03-13 00   20.2    70.6     959    4    90          
2021-03-13 06   20.7    70.2     966    3    80          
2021-03-13 12   21.2    70.0     973    3    70          
2021-03-13 18   21.4    70.0     974    3    70          
2021-03-14 00   21.8    70.0     976    3    65          
2021-03-14 06   22.0    70.4     983    2    55          
2021-03-14 12   22.1    70.7     986    2    55          
2021-03-14 18   22.2    71.1     989    2    50          
2021-03-15 00   22.3    71.4     990    1    45          
2021-03-15 06   22.4    71.6     990    1    45          
2021-03-15 12   22.1    71.4     992    1    40          
2021-03-15 18   22.1    71.2     998         30          
2021-03-16 00   22.4    70.8    1002         25          
2021-03-16 06   22.5    70.4    1003         20          
2021-03-16 12   22.9    70.2    1000         25          
2021-03-16 18   23.3    70.1    1002         20          
2021-03-17 00   23.8    70.0    1004         20          
Winds were reported as (or converted to) 10-min average.

Tropical cyclone tracks developed by Michael Bath using operational warnings and advisories and Google Maps.


Document: tropical_cyclone_habana.htm
Updated: 7 May 2021
[Australian Severe Weather index] [Copyright Notice] [Email Contacts] [Search This Site] [Privacy Policy]


Main Index Home Page Stock Weather Photos Extreme Storms Discussion Storm News and Storm Chasing Reports Tropical Cyclones / Hurricanes / Typhoons Weather Data and Links Wild Fires / Bushfires Weather Observation Techniques Weather Picture Catalogue Tornado Pictures and Reports Stock Video Footage and DVDs for sale